sensor_id;sensor_type;location;lat;lon;timestamp;pressure;altitude;pressure_sealevel;temperature;humidity
64243;BME280;50573;51.512;5.386;2023-02-27T00:01:32;102588.03;;;-0.18;84.61
64243;BME280;50573;51.512;5.386;2023-02-27T00:11:37;102590.72;;;-0.27;85.90
64243;BME280;50573;51.512;5.386;2023-02-27T00:21:40;102589.59;;;-0.17;85.64
64243;BME280;50573;51.512;5.386;2023-02-27T00:31:46;102581.41;;;-0.12;85.22
64243;BME280;50573;51.512;5.386;2023-02-27T00:41:49;102574.50;;;-0.13;85.60
64243;BME280;50573;51.512;5.386;2023-02-27T00:51:53;102573.69;;;-0.14;85.21
64243;BME280;50573;51.512;5.386;2023-02-27T01:01:57;102566.16;;;-0.12;85.71
64243;BME280;50573;51.512;5.386;2023-02-27T01:12:03;102562.66;;;-0.21;85.62
64243;BME280;50573;51.512;5.386;2023-02-27T01:22:07;102571.81;;;-0.30;86.46
64243;BME280;50573;51.512;5.386;2023-02-27T01:32:11;102565.66;;;-0.31;86.23
64243;BME280;50573;51.512;5.386;2023-02-27T01:42:18;102556.06;;;-0.40;86.45
64243;BME280;50573;51.512;5.386;2023-02-27T01:52:23;102558.44;;;-0.47;86.67
64243;BME280;50573;51.512;5.386;2023-02-27T02:02:31;102553.06;;;-0.56;87.37
64243;BME280;50573;51.512;5.386;2023-02-27T02:12:38;102545.66;;;-0.59;87.53
64243;BME280;50573;51.512;5.386;2023-02-27T02:23:08;102548.16;;;-0.71;87.83
64243;BME280;50573;51.512;5.386;2023-02-27T02:33:45;102552.38;;;-0.87;88.66
64243;BME280;50573;51.512;5.386;2023-02-27T02:43:59;102553.66;;;-0.93;88.68
64243;BME280;50573;51.512;5.386;2023-02-27T02:54:09;102561.75;;;-1.15;89.16
64243;BME280;50573;51.512;5.386;2023-02-27T03:04:19;102558.66;;;-1.39;89.56
64243;BME280;50573;51.512;5.386;2023-02-27T03:14:28;102558.84;;;-1.35;90.73
64243;BME280;50573;51.512;5.386;2023-02-27T03:24:37;102572.75;;;-1.25;90.43
64243;BME280;50573;51.512;5.386;2023-02-27T03:34:42;102577.16;;;-1.20;90.73
64243;BME280;50573;51.512;5.386;2023-02-27T03:44:50;102586.25;;;-1.21;90.44
64243;BME280;50573;51.512;5.386;2023-02-27T03:54:58;102592.72;;;-1.22;90.77
64243;BME280;50573;51.512;5.386;2023-02-27T04:05:06;102594.44;;;-1.26;90.75
64243;BME280;50573;51.512;5.386;2023-02-27T04:15:22;102607.09;;;-1.41;91.45
64243;BME280;50573;51.512;5.386;2023-02-27T04:25:40;102603.41;;;-1.53;90.57
64243;BME280;50573;51.512;5.386;2023-02-27T04:35:49;102603.53;;;-1.58;92.08
64243;BME280;50573;51.512;5.386;2023-02-27T04:45:56;102619.56;;;-1.58;91.84
64243;BME280;50573;51.512;5.386;2023-02-27T04:56:02;102615.34;;;-1.51;92.91
64243;BME280;50573;51.512;5.386;2023-02-27T05:06:09;102613.66;;;-1.47;92.44
64243;BME280;50573;51.512;5.386;2023-02-27T05:16:18;102616.28;;;-1.55;92.14
64243;BME280;50573;51.512;5.386;2023-02-27T05:26:28;102637.78;;;-1.60;93.14
64243;BME280;50573;51.512;5.386;2023-02-27T05:36:37;102632.66;;;-1.70;92.68
64243;BME280;50573;51.512;5.386;2023-02-27T05:46:47;102639.00;;;-1.66;94.10
64243;BME280;50573;51.512;5.386;2023-02-27T05:56:56;102651.25;;;-1.65;94.29
64243;BME280;50573;51.512;5.386;2023-02-27T06:07:01;102651.44;;;-1.62;94.36
64243;BME280;50573;51.512;5.386;2023-02-27T06:17:08;102663.03;;;-1.66;94.60
64243;BME280;50573;51.512;5.386;2023-02-27T06:27:13;102658.97;;;-1.64;95.50
64243;BME280;50573;51.512;5.386;2023-02-27T06:37:16;102668.13;;;-1.78;95.23
64243;BME280;50573;51.512;5.386;2023-02-27T06:47:20;102689.13;;;-1.85;95.37
64243;BME280;50573;51.512;5.386;2023-02-27T06:57:23;102713.38;;;-1.82;96.93
64243;BME280;50573;51.512;5.386;2023-02-27T07:07:28;102725.22;;;-1.74;96.50
64243;BME280;50573;51.512;5.386;2023-02-27T07:17:37;102738.63;;;-1.66;96.94
64243;BME280;50573;51.512;5.386;2023-02-27T07:27:42;102757.84;;;-1.42;97.39
64243;BME280;50573;51.512;5.386;2023-02-27T07:37:47;102752.13;;;-1.04;95.84
64243;BME280;50573;51.512;5.386;2023-02-27T07:47:51;102745.19;;;-0.75;95.12
64243;BME280;50573;51.512;5.386;2023-02-27T07:57:55;102760.28;;;-0.40;93.45
64243;BME280;50573;51.512;5.386;2023-02-27T08:07:59;102746.16;;;-0.15;92.59
64243;BME280;50573;51.512;5.386;2023-02-27T08:18:03;102753.63;;;0.06;91.94
64243;BME280;50573;51.512;5.386;2023-02-27T08:28:07;102763.28;;;0.32;90.41
64243;BME280;50573;51.512;5.386;2023-02-27T08:38:10;102775.13;;;0.57;89.30
64243;BME280;50573;51.512;5.386;2023-02-27T08:48:15;102792.75;;;0.92;87.34
64243;BME280;50573;51.512;5.386;2023-02-27T08:58:19;102781.50;;;1.15;86.31
64243;BME280;50573;51.512;5.386;2023-02-27T09:08:24;102794.47;;;1.51;83.80
64243;BME280;50573;51.512;5.386;2023-02-27T09:18:27;102797.84;;;1.77;82.67
64243;BME280;50573;51.512;5.386;2023-02-27T09:28:32;102808.41;;;2.11;82.06
64243;BME280;50573;51.512;5.386;2023-02-27T09:38:35;102815.41;;;2.53;79.13
64243;BME280;50573;51.512;5.386;2023-02-27T09:48:48;102809.59;;;2.84;76.72
64243;BME280;50573;51.512;5.386;2023-02-27T09:58:57;102793.25;;;2.89;74.93
64243;BME280;50573;51.512;5.386;2023-02-27T10:09:11;102809.41;;;3.22;74.19
64243;BME280;50573;51.512;5.386;2023-02-27T10:19:25;102819.50;;;3.25;72.67
64243;BME280;50573;51.512;5.386;2023-02-27T10:29:32;102814.88;;;3.70;70.71
64243;BME280;50573;51.512;5.386;2023-02-27T10:39:44;102814.19;;;3.73;69.15
64243;BME280;50573;51.512;5.386;2023-02-27T10:49:49;102794.31;;;4.01;67.91
64243;BME280;50573;51.512;5.386;2023-02-27T10:59:55;102795.41;;;4.24;65.50
64243;BME280;50573;51.512;5.386;2023-02-27T11:10:14;102767.13;;;4.46;65.49
64243;BME280;50573;51.512;5.386;2023-02-27T11:20:32;102762.22;;;4.64;63.61
64243;BME280;50573;51.512;5.386;2023-02-27T11:30:38;102745.59;;;4.89;63.32
64243;BME280;50573;51.512;5.386;2023-02-27T11:40:52;102734.81;;;5.20;62.59
64243;BME280;50573;51.512;5.386;2023-02-27T11:51:33;102731.56;;;5.93;61.29
64243;BME280;50573;51.512;5.386;2023-02-27T12:01:42;102722.50;;;5.85;58.06
64243;BME280;50573;51.512;5.386;2023-02-27T12:11:49;102733.22;;;5.82;58.12
64243;BME280;50573;51.512;5.386;2023-02-27T12:21:56;102729.56;;;5.90;58.22
64243;BME280;50573;51.512;5.386;2023-02-27T12:32:08;102722.28;;;5.94;58.16
64243;BME280;50573;51.512;5.386;2023-02-27T12:42:39;102717.22;;;6.27;57.39
64243;BME280;50573;51.512;5.386;2023-02-27T12:52:56;102718.91;;;6.16;56.65
64243;BME280;50573;51.512;5.386;2023-02-27T13:03:09;102722.03;;;6.56;56.79
64243;BME280;50573;51.512;5.386;2023-02-27T13:13:21;102710.31;;;6.48;55.93
64243;BME280;50573;51.512;5.386;2023-02-27T13:23:34;102704.53;;;6.31;56.24
64243;BME280;50573;51.512;5.386;2023-02-27T13:33:57;102704.38;;;6.43;54.94
64243;BME280;50573;51.512;5.386;2023-02-27T13:54:42;102695.19;;;6.28;53.94
64243;BME280;50573;51.512;5.386;2023-02-27T14:04:48;102692.81;;;6.87;53.48
64243;BME280;50573;51.512;5.386;2023-02-27T14:14:54;102678.97;;;6.70;53.60
64243;BME280;50573;51.512;5.386;2023-02-27T14:25:00;102692.25;;;6.56;54.66
64243;BME280;50573;51.512;5.386;2023-02-27T14:35:14;102685.69;;;6.76;53.68
64243;BME280;50573;51.512;5.386;2023-02-27T14:45:19;102687.09;;;6.70;53.04
64243;BME280;50573;51.512;5.386;2023-02-27T14:55:28;102676.31;;;6.51;54.21
64243;BME280;50573;51.512;5.386;2023-02-27T15:05:32;102672.13;;;6.34;53.87
64243;BME280;50573;51.512;5.386;2023-02-27T15:15:37;102668.28;;;6.35;54.72
64243;BME280;50573;51.512;5.386;2023-02-27T15:25:40;102656.09;;;6.45;53.22
64243;BME280;50573;51.512;5.386;2023-02-27T15:35:46;102668.69;;;6.37;53.75
64243;BME280;50573;51.512;5.386;2023-02-27T15:45:50;102668.94;;;6.29;55.58
64243;BME280;50573;51.512;5.386;2023-02-27T15:55:57;102674.69;;;6.08;56.62
64243;BME280;50573;51.512;5.386;2023-02-27T16:06:06;102673.66;;;5.62;57.13
64243;BME280;50573;51.512;5.386;2023-02-27T16:16:25;102674.50;;;5.47;58.78
64243;BME280;50573;51.512;5.386;2023-02-27T16:26:31;102684.91;;;5.64;58.32
64243;BME280;50573;51.512;5.386;2023-02-27T16:36:39;102691.91;;;5.50;59.75
64243;BME280;50573;51.512;5.386;2023-02-27T16:46:52;102697.59;;;5.29;60.58
64243;BME280;50573;51.512;5.386;2023-02-27T16:57:06;102691.75;;;4.96;62.15
64243;BME280;50573;51.512;5.386;2023-02-27T17:07:13;102693.03;;;4.71;63.07
64243;BME280;50573;51.512;5.386;2023-02-27T17:17:20;102705.47;;;4.33;64.93
64243;BME280;50573;51.512;5.386;2023-02-27T17:27:23;102705.09;;;4.06;65.09
64243;BME280;50573;51.512;5.386;2023-02-27T17:37:27;102721.34;;;3.82;65.47
64243;BME280;50573;51.512;5.386;2023-02-27T17:47:30;102733.13;;;3.54;66.61
64243;BME280;50573;51.512;5.386;2023-02-27T17:57:35;102734.94;;;3.26;67.57
64243;BME280;50573;51.512;5.386;2023-02-27T18:07:39;102744.88;;;3.13;67.70
64243;BME280;50573;51.512;5.386;2023-02-27T18:17:43;102757.25;;;2.94;70.14
64243;BME280;50573;51.512;5.386;2023-02-27T18:27:46;102755.22;;;2.78;70.33
64243;BME280;50573;51.512;5.386;2023-02-27T18:37:51;102750.44;;;2.63;71.47
64243;BME280;50573;51.512;5.386;2023-02-27T18:47:54;102757.56;;;2.47;71.20
64243;BME280;50573;51.512;5.386;2023-02-27T18:57:59;102751.41;;;2.26;73.42
64243;BME280;50573;51.512;5.386;2023-02-27T19:08:02;102753.09;;;2.10;72.59
64243;BME280;50573;51.512;5.386;2023-02-27T19:18:07;102749.41;;;1.94;74.91
64243;BME280;50573;51.512;5.386;2023-02-27T19:28:10;102756.72;;;1.85;75.95
64243;BME280;50573;51.512;5.386;2023-02-27T19:38:14;102776.09;;;1.70;76.38
64243;BME280;50573;51.512;5.386;2023-02-27T19:48:17;102771.84;;;1.61;77.67
64243;BME280;50573;51.512;5.386;2023-02-27T19:58:22;102766.22;;;1.54;76.26
64243;BME280;50573;51.512;5.386;2023-02-27T20:08:25;102768.44;;;1.43;77.79
64243;BME280;50573;51.512;5.386;2023-02-27T20:18:30;102778.28;;;1.30;77.70
64243;BME280;50573;51.512;5.386;2023-02-27T20:28:34;102781.00;;;1.22;78.60
64243;BME280;50573;51.512;5.386;2023-02-27T20:38:40;102779.59;;;1.16;78.84
64243;BME280;50573;51.512;5.386;2023-02-27T20:48:44;102775.84;;;1.08;79.55
64243;BME280;50573;51.512;5.386;2023-02-27T20:58:49;102768.94;;;0.90;79.66
64243;BME280;50573;51.512;5.386;2023-02-27T21:08:52;102778.75;;;0.78;80.76
64243;BME280;50573;51.512;5.386;2023-02-27T21:18:57;102778.25;;;0.42;80.03
64243;BME280;50573;51.512;5.386;2023-02-27T21:29:02;102788.47;;;0.14;81.38
64243;BME280;50573;51.512;5.386;2023-02-27T21:39:08;102779.13;;;-0.06;81.92
64243;BME280;50573;51.512;5.386;2023-02-27T21:49:14;102781.31;;;-0.16;84.01
64243;BME280;50573;51.512;5.386;2023-02-27T21:59:19;102773.72;;;-0.23;83.03
64243;BME280;50573;51.512;5.386;2023-02-27T22:09:22;102764.75;;;-0.27;86.46
64243;BME280;50573;51.512;5.386;2023-02-27T22:19:27;102768.72;;;-0.16;86.23
64243;BME280;50573;51.512;5.386;2023-02-27T22:29:30;102762.09;;;-0.18;86.87
64243;BME280;50573;51.512;5.386;2023-02-27T22:39:35;102772.66;;;-0.13;86.63
64243;BME280;50573;51.512;5.386;2023-02-27T22:49:38;102784.50;;;-0.06;87.50
64243;BME280;50573;51.512;5.386;2023-02-27T22:59:43;102792.25;;;0.05;86.38
64243;BME280;50573;51.512;5.386;2023-02-27T23:09:46;102793.00;;;0.05;87.21
64243;BME280;50573;51.512;5.386;2023-02-27T23:19:50;102797.91;;;0.03;87.03
64243;BME280;50573;51.512;5.386;2023-02-27T23:29:53;102802.81;;;0.10;87.38
64243;BME280;50573;51.512;5.386;2023-02-27T23:39:57;102803.13;;;0.17;87.49
64243;BME280;50573;51.512;5.386;2023-02-27T23:50:03;102808.63;;;0.12;87.40
